TimeCST,TemperatureF,Dew PointF,Humidity,Sea Level PressureIn,VisibilityMPH,Wind Direction,Wind SpeedMPH,Gust SpeedMPH,PrecipitationIn,Events,Conditions,WindDirDegrees,DateUTC
6:00 AM,-9999,-9999,,29.86,12,East,9.2,,,,Overcast,100,2013-03-03 12:00:00
6:00 AM,77.0,50.0,39,29.85,6.2,East,9.2,-,N/A,,Mostly Cloudy,100,2013-03-03 12:00:00
7:00 AM,78.8,46.4,32,29.83,6.2,East,15.0,-,N/A,,Mostly Cloudy,80,2013-03-03 13:00:00
8:00 AM,80.6,46.4,30,29.89,6.2,East,16.1,-,N/A,,Mostly Cloudy,90,2013-03-03 14:00:00
9:00 AM,84,48,18,29.91,12,WNW,11.5,,,,Scattered Clouds,300,2013-03-03 15:00:00
9:00 AM,84.2,48.2,29,29.89,6.2,WNW,11.5,-,N/A,,Mostly Cloudy,300,2013-03-03 15:00:00
10:00 AM,87.8,48.2,25,29.88,6.2,ENE,18.4,-,N/A,,Scattered Clouds,60,2013-03-03 16:00:00
11:00 AM,91.4,50.0,24,29.85,-9999.0,NE,26.5,38.0,N/A,,Clear,50,2013-03-03 17:00:00
12:00 PM,89,51,17,29.85,12,East,19.6,,,,Clear,80,2013-03-03 18:00:00
12:00 PM,89.6,50.0,26,29.84,-9999.0,East,19.6,31.1,N/A,,Clear,80,2013-03-03 18:00:00
1:00 PM,91.4,51.8,26,29.82,-9999.0,ENE,18.4,35.7,N/A,,Clear,60,2013-03-03 19:00:00
2:00 PM,87.8,51.8,29,29.80,-9999.0,East,23.0,-,N/A,,Clear,90,2013-03-03 20:00:00
3:00 PM,86,53,22,29.81,12,East,20.7,,,,Overcast,90,2013-03-03 21:00:00
3:00 PM,86.0,53.6,33,29.80,-9999.0,East,20.7,-,N/A,,Clear,90,2013-03-03 21:00:00
4:00 PM,64.4,55.4,73,29.80,-9999.0,East,19.6,31.1,N/A,,Clear,80,2013-03-03 22:00:00
5:00 PM,80.6,55.4,42,29.82,-9999.0,East,20.7,-,N/A,,Clear,80,2013-03-03 23:00:00
6:00 PM,78,56,37,29.85,12,East,21.9,,,,Mostly Cloudy,80,2013-03-04 00:00:00
6:00 PM,78.8,57.2,47,29.84,-9999.0,East,21.9,35.7,N/A,,Clear,80,2013-03-04 00:00:00
7:00 PM,77.0,57.2,50,29.87,-9999.0,East,19.6,-,N/A,,Clear,90,2013-03-04 01:00:00
8:00 PM,77.0,57.2,50,29.88,-9999.0,East,19.6,-,N/A,,Clear,80,2013-03-04 02:00:00
9:00 PM,78.8,55.4,44,29.90,-9999.0,ENE,16.1,-,N/A,,Clear,70,2013-03-04 03:00:00
10:00 PM,77.0,55.4,47,29.92,-9999.0,ENE,19.6,-,N/A,,Clear,60,2013-03-04 04:00:00
11:00 PM,77.0,53.6,44,29.91,-9999.0,ENE,23.0,-,N/A,,Clear,60,2013-03-04 05:00:00